LFRK/CFR METAR and TAF weather

Enter ICAO airport designator
Station Type Date Time Source
LFRK METAR 2020/08/14 17:30 UTC NOAA

LFRK 141730Z AUTO 25012KT 9999 OVC012 19/17 Q1015 TEMPO 4000 RA BKN008


Station Type Date Time Source
LFRK Decoded METAR 2020/08/14 17:30 UTC NOAA

Caen, France (LFRK) 49-11N 000-27W 67M
Aug 14, 2020 - 01:30 PM EDT / 2020.08.14 1730 UTC
Wind: from the WSW (250 degrees) at 14 MPH (12 KT):0
Visibility: greater than 7 mile(s):0
Sky conditions: overcast
Temperature: 66 F (19 C)
Dew Point: 62 F (17 C)
Relative Humidity: 88%
Pressure (altimeter): 29.97 in. Hg (1015 hPa)
ob: LFRK 141730Z AUTO 25012KT 9999 OVC012 19/17 Q1015 TEMPO 4000 RA BKN008
cycle: 17

Station Type Date Time Source
LFRK TAF 2020/06/02 06:21 UTC NOAA

TAF LFRK 020500Z 0206/0306 33004KT CAVOK

Example: see airport list